sensor_id;sensor_type;location;lat;lon;timestamp;P1;durP1;ratioP1;P2;durP2;ratioP2
60873;SDS011;46715;40.642;-7.920;2024-01-25T00:01:03;8.60;;;6.47;;
60873;SDS011;46715;40.642;-7.920;2024-01-25T00:03:04;11.02;;;6.15;;
60873;SDS011;46715;40.642;-7.920;2024-01-25T00:05:05;10.50;;;6.30;;
60873;SDS011;46715;40.642;-7.920;2024-01-25T00:07:09;9.43;;;6.70;;
60873;SDS011;46715;40.642;-7.920;2024-01-25T00:09:10;7.93;;;6.25;;
60873;SDS011;46715;40.642;-7.920;2024-01-25T00:11:11;7.67;;;5.60;;
60873;SDS011;46715;40.642;-7.920;2024-01-25T00:13:11;10.20;;;6.60;;
60873;SDS011;46715;40.642;-7.920;2024-01-25T00:15:12;9.83;;;6.17;;
60873;SDS011;46715;40.642;-7.920;2024-01-25T00:17:13;8.40;;;5.60;;
60873;SDS011;46715;40.642;-7.920;2024-01-25T00:19:14;9.17;;;6.37;;
60873;SDS011;46715;40.642;-7.920;2024-01-25T00:21:15;8.07;;;5.80;;
60873;SDS011;46715;40.642;-7.920;2024-01-25T00:23:16;9.67;;;6.13;;
60873;SDS011;46715;40.642;-7.920;2024-01-25T00:25:16;7.23;;;5.73;;
60873;SDS011;46715;40.642;-7.920;2024-01-25T00:27:17;11.23;;;5.43;;
60873;SDS011;46715;40.642;-7.920;2024-01-25T00:29:18;7.03;;;5.27;;
60873;SDS011;46715;40.642;-7.920;2024-01-25T00:31:18;6.73;;;5.13;;
60873;SDS011;46715;40.642;-7.920;2024-01-25T00:33:19;7.77;;;4.90;;
60873;SDS011;46715;40.642;-7.920;2024-01-25T00:35:20;5.43;;;4.28;;
60873;SDS011;46715;40.642;-7.920;2024-01-25T00:37:21;6.60;;;4.33;;
60873;SDS011;46715;40.642;-7.920;2024-01-25T00:39:22;4.97;;;3.90;;
60873;SDS011;46715;40.642;-7.920;2024-01-25T00:41:23;5.90;;;4.07;;
60873;SDS011;46715;40.642;-7.920;2024-01-25T00:43:24;5.53;;;4.20;;
60873;SDS011;46715;40.642;-7.920;2024-01-25T00:45:25;6.03;;;4.63;;
60873;SDS011;46715;40.642;-7.920;2024-01-25T00:47:26;4.90;;;3.70;;
60873;SDS011;46715;40.642;-7.920;2024-01-25T00:49:27;5.45;;;3.70;;
60873;SDS011;46715;40.642;-7.920;2024-01-25T00:51:28;5.40;;;3.70;;
60873;SDS011;46715;40.642;-7.920;2024-01-25T00:53:29;4.82;;;3.47;;
60873;SDS011;46715;40.642;-7.920;2024-01-25T00:55:33;5.32;;;3.63;;
60873;SDS011;46715;40.642;-7.920;2024-01-25T00:57:34;4.40;;;3.40;;
60873;SDS011;46715;40.642;-7.920;2024-01-25T00:59:35;5.25;;;3.58;;
60873;SDS011;46715;40.642;-7.920;2024-01-25T01:01:36;4.90;;;3.30;;
60873;SDS011;46715;40.642;-7.920;2024-01-25T01:03:37;5.23;;;3.80;;
60873;SDS011;46715;40.642;-7.920;2024-01-25T01:05:38;4.77;;;3.40;;
60873;SDS011;46715;40.642;-7.920;2024-01-25T01:07:39;4.32;;;3.40;;
60873;SDS011;46715;40.642;-7.920;2024-01-25T01:09:43;4.68;;;3.05;;
60873;SDS011;46715;40.642;-7.920;2024-01-25T01:11:43;4.00;;;3.10;;
60873;SDS011;46715;40.642;-7.920;2024-01-25T01:13:44;4.00;;;3.10;;
60873;SDS011;46715;40.642;-7.920;2024-01-25T01:15:45;4.07;;;3.03;;
60873;SDS011;46715;40.642;-7.920;2024-01-25T01:17:49;4.05;;;3.30;;
60873;SDS011;46715;40.642;-7.920;2024-01-25T01:19:50;3.63;;;2.85;;
60873;SDS011;46715;40.642;-7.920;2024-01-25T01:21:51;4.13;;;3.17;;
60873;SDS011;46715;40.642;-7.920;2024-01-25T01:23:51;4.67;;;3.13;;
60873;SDS011;46715;40.642;-7.920;2024-01-25T01:25:52;4.07;;;2.63;;
60873;SDS011;46715;40.642;-7.920;2024-01-25T01:27:53;5.13;;;3.23;;
60873;SDS011;46715;40.642;-7.920;2024-01-25T01:29:54;4.53;;;3.33;;
60873;SDS011;46715;40.642;-7.920;2024-01-25T01:31:55;5.00;;;3.10;;
60873;SDS011;46715;40.642;-7.920;2024-01-25T01:33:56;3.27;;;2.80;;
60873;SDS011;46715;40.642;-7.920;2024-01-25T01:35:58;5.72;;;2.90;;
60873;SDS011;46715;40.642;-7.920;2024-01-25T01:37:59;5.27;;;3.40;;
60873;SDS011;46715;40.642;-7.920;2024-01-25T01:40:00;4.00;;;3.23;;
60873;SDS011;46715;40.642;-7.920;2024-01-25T01:42:00;3.87;;;2.80;;
60873;SDS011;46715;40.642;-7.920;2024-01-25T01:44:01;3.83;;;3.07;;
60873;SDS011;46715;40.642;-7.920;2024-01-25T01:46:04;4.70;;;2.88;;
60873;SDS011;46715;40.642;-7.920;2024-01-25T01:48:25;4.60;;;3.05;;
60873;SDS011;46715;40.642;-7.920;2024-01-25T01:50:26;4.57;;;3.40;;
60873;SDS011;46715;40.642;-7.920;2024-01-25T01:52:27;4.60;;;3.20;;
60873;SDS011;46715;40.642;-7.920;2024-01-25T01:54:28;3.70;;;2.75;;
60873;SDS011;46715;40.642;-7.920;2024-01-25T01:56:29;4.27;;;2.90;;
60873;SDS011;46715;40.642;-7.920;2024-01-25T01:58:30;3.87;;;3.13;;
60873;SDS011;46715;40.642;-7.920;2024-01-25T02:02:34;3.70;;;2.88;;
60873;SDS011;46715;40.642;-7.920;2024-01-25T02:04:35;3.65;;;2.80;;
60873;SDS011;46715;40.642;-7.920;2024-01-25T02:06:36;4.43;;;3.07;;
60873;SDS011;46715;40.642;-7.920;2024-01-25T02:08:37;3.67;;;3.20;;
60873;SDS011;46715;40.642;-7.920;2024-01-25T02:10:37;3.67;;;2.97;;
60873;SDS011;46715;40.642;-7.920;2024-01-25T02:12:38;4.33;;;2.40;;
60873;SDS011;46715;40.642;-7.920;2024-01-25T02:14:39;3.60;;;2.77;;
60873;SDS011;46715;40.642;-7.920;2024-01-25T02:16:44;4.82;;;3.20;;
60873;SDS011;46715;40.642;-7.920;2024-01-25T02:18:47;3.67;;;2.60;;
60873;SDS011;46715;40.642;-7.920;2024-01-25T02:20:48;5.00;;;3.03;;
60873;SDS011;46715;40.642;-7.920;2024-01-25T02:22:48;4.77;;;3.10;;
60873;SDS011;46715;40.642;-7.920;2024-01-25T02:24:49;4.77;;;3.13;;
60873;SDS011;46715;40.642;-7.920;2024-01-25T02:26:50;4.57;;;2.87;;
60873;SDS011;46715;40.642;-7.920;2024-01-25T02:28:51;6.07;;;3.23;;
60873;SDS011;46715;40.642;-7.920;2024-01-25T02:30:52;4.87;;;3.13;;
60873;SDS011;46715;40.642;-7.920;2024-01-25T02:32:53;3.83;;;3.03;;
60873;SDS011;46715;40.642;-7.920;2024-01-25T02:34:53;3.53;;;2.87;;
60873;SDS011;46715;40.642;-7.920;2024-01-25T02:36:54;4.60;;;2.80;;
60873;SDS011;46715;40.642;-7.920;2024-01-25T02:38:55;4.30;;;2.93;;
60873;SDS011;46715;40.642;-7.920;2024-01-25T02:40:56;4.43;;;3.03;;
60873;SDS011;46715;40.642;-7.920;2024-01-25T02:42:56;5.73;;;3.00;;
60873;SDS011;46715;40.642;-7.920;2024-01-25T02:44:57;3.60;;;2.83;;
60873;SDS011;46715;40.642;-7.920;2024-01-25T02:46:58;3.90;;;3.43;;
60873;SDS011;46715;40.642;-7.920;2024-01-25T02:48:59;4.87;;;3.30;;
60873;SDS011;46715;40.642;-7.920;2024-01-25T02:50:59;4.40;;;3.23;;
60873;SDS011;46715;40.642;-7.920;2024-01-25T02:53:01;6.03;;;3.67;;
60873;SDS011;46715;40.642;-7.920;2024-01-25T02:55:02;4.28;;;3.25;;
60873;SDS011;46715;40.642;-7.920;2024-01-25T02:57:03;4.30;;;3.20;;
60873;SDS011;46715;40.642;-7.920;2024-01-25T02:59:05;3.80;;;3.00;;
60873;SDS011;46715;40.642;-7.920;2024-01-25T03:01:05;3.20;;;2.90;;
60873;SDS011;46715;40.642;-7.920;2024-01-25T03:03:06;4.17;;;3.00;;
60873;SDS011;46715;40.642;-7.920;2024-01-25T03:05:07;2.80;;;2.47;;
60873;SDS011;46715;40.642;-7.920;2024-01-25T03:07:08;3.67;;;2.97;;
60873;SDS011;46715;40.642;-7.920;2024-01-25T03:09:08;4.83;;;3.10;;
60873;SDS011;46715;40.642;-7.920;2024-01-25T03:11:09;5.30;;;2.73;;
60873;SDS011;46715;40.642;-7.920;2024-01-25T03:13:10;4.23;;;3.07;;
60873;SDS011;46715;40.642;-7.920;2024-01-25T03:15:11;2.93;;;2.43;;
60873;SDS011;46715;40.642;-7.920;2024-01-25T03:17:17;5.68;;;2.80;;
60873;SDS011;46715;40.642;-7.920;2024-01-25T03:19:18;4.97;;;3.47;;
60873;SDS011;46715;40.642;-7.920;2024-01-25T03:21:19;5.28;;;4.03;;
60873;SDS011;46715;40.642;-7.920;2024-01-25T03:23:19;3.60;;;3.20;;
60873;SDS011;46715;40.642;-7.920;2024-01-25T03:25:20;5.20;;;3.60;;
60873;SDS011;46715;40.642;-7.920;2024-01-25T03:27:21;4.50;;;3.70;;
60873;SDS011;46715;40.642;-7.920;2024-01-25T03:29:22;4.83;;;3.73;;
60873;SDS011;46715;40.642;-7.920;2024-01-25T03:31:22;4.50;;;3.53;;
60873;SDS011;46715;40.642;-7.920;2024-01-25T03:33:23;4.07;;;3.63;;
60873;SDS011;46715;40.642;-7.920;2024-01-25T03:37:26;5.80;;;3.40;;
60873;SDS011;46715;40.642;-7.920;2024-01-25T03:39:26;4.37;;;3.10;;
60873;SDS011;46715;40.642;-7.920;2024-01-25T03:41:27;3.57;;;3.10;;
60873;SDS011;46715;40.642;-7.920;2024-01-25T03:45:29;4.75;;;3.00;;
60873;SDS011;46715;40.642;-7.920;2024-01-25T03:47:32;4.53;;;3.00;;
60873;SDS011;46715;40.642;-7.920;2024-01-25T03:49:33;3.80;;;2.93;;
60873;SDS011;46715;40.642;-7.920;2024-01-25T03:51:34;4.50;;;3.37;;
60873;SDS011;46715;40.642;-7.920;2024-01-25T03:53:35;3.57;;;2.97;;
60873;SDS011;46715;40.642;-7.920;2024-01-25T03:55:35;3.90;;;3.40;;
60873;SDS011;46715;40.642;-7.920;2024-01-25T03:57:36;5.20;;;3.67;;
60873;SDS011;46715;40.642;-7.920;2024-01-25T03:59:40;3.78;;;3.13;;
60873;SDS011;46715;40.642;-7.920;2024-01-25T04:01:44;3.60;;;3.17;;
60873;SDS011;46715;40.642;-7.920;2024-01-25T04:03:45;5.93;;;3.17;;
60873;SDS011;46715;40.642;-7.920;2024-01-25T04:05:45;4.97;;;3.43;;
60873;SDS011;46715;40.642;-7.920;2024-01-25T04:07:46;4.47;;;3.37;;
60873;SDS011;46715;40.642;-7.920;2024-01-25T04:09:47;4.20;;;3.03;;
60873;SDS011;46715;40.642;-7.920;2024-01-25T04:11:48;4.63;;;2.80;;
60873;SDS011;46715;40.642;-7.920;2024-01-25T04:13:48;4.07;;;2.73;;
60873;SDS011;46715;40.642;-7.920;2024-01-25T04:15:49;3.63;;;2.73;;
60873;SDS011;46715;40.642;-7.920;2024-01-25T04:17:51;3.20;;;2.80;;
60873;SDS011;46715;40.642;-7.920;2024-01-25T04:19:53;3.50;;;2.78;;
60873;SDS011;46715;40.642;-7.920;2024-01-25T04:21:54;3.83;;;3.00;;
60873;SDS011;46715;40.642;-7.920;2024-01-25T04:23:54;3.73;;;2.50;;
60873;SDS011;46715;40.642;-7.920;2024-01-25T04:25:55;2.93;;;2.63;;
60873;SDS011;46715;40.642;-7.920;2024-01-25T04:27:56;3.97;;;2.40;;
60873;SDS011;46715;40.642;-7.920;2024-01-25T04:29:57;3.17;;;2.40;;
60873;SDS011;46715;40.642;-7.920;2024-01-25T04:31:57;3.27;;;2.30;;
60873;SDS011;46715;40.642;-7.920;2024-01-25T04:33:59;2.63;;;2.15;;
60873;SDS011;46715;40.642;-7.920;2024-01-25T04:36:00;3.42;;;2.30;;
60873;SDS011;46715;40.642;-7.920;2024-01-25T04:38:01;3.40;;;2.30;;
60873;SDS011;46715;40.642;-7.920;2024-01-25T04:40:02;3.57;;;2.60;;
60873;SDS011;46715;40.642;-7.920;2024-01-25T04:42:03;3.00;;;2.20;;
60873;SDS011;46715;40.642;-7.920;2024-01-25T04:44:04;2.53;;;2.08;;
60873;SDS011;46715;40.642;-7.920;2024-01-25T04:46:05;3.33;;;2.27;;
60873;SDS011;46715;40.642;-7.920;2024-01-25T04:48:06;3.03;;;1.90;;
60873;SDS011;46715;40.642;-7.920;2024-01-25T04:50:07;2.95;;;2.22;;
60873;SDS011;46715;40.642;-7.920;2024-01-25T04:52:08;2.93;;;2.07;;
60873;SDS011;46715;40.642;-7.920;2024-01-25T04:54:09;2.60;;;2.30;;
60873;SDS011;46715;40.642;-7.920;2024-01-25T04:56:12;4.43;;;2.05;;
60873;SDS011;46715;40.642;-7.920;2024-01-25T04:58:13;2.47;;;1.93;;
60873;SDS011;46715;40.642;-7.920;2024-01-25T05:00:14;3.03;;;2.17;;
60873;SDS011;46715;40.642;-7.920;2024-01-25T05:02:15;3.13;;;2.35;;
60873;SDS011;46715;40.642;-7.920;2024-01-25T05:04:16;2.80;;;2.20;;
60873;SDS011;46715;40.642;-7.920;2024-01-25T05:06:17;2.90;;;2.30;;
60873;SDS011;46715;40.642;-7.920;2024-01-25T05:08:18;3.03;;;2.10;;
60873;SDS011;46715;40.642;-7.920;2024-01-25T05:10:18;2.53;;;2.20;;
60873;SDS011;46715;40.642;-7.920;2024-01-25T05:12:19;3.83;;;2.63;;
60873;SDS011;46715;40.642;-7.920;2024-01-25T05:14:20;2.93;;;2.33;;
60873;SDS011;46715;40.642;-7.920;2024-01-25T05:16:21;2.40;;;1.97;;
60873;SDS011;46715;40.642;-7.920;2024-01-25T05:18:21;2.67;;;2.00;;
60873;SDS011;46715;40.642;-7.920;2024-01-25T05:20:22;3.07;;;2.23;;
60873;SDS011;46715;40.642;-7.920;2024-01-25T05:22:23;3.93;;;2.13;;
60873;SDS011;46715;40.642;-7.920;2024-01-25T05:24:24;4.30;;;2.30;;
60873;SDS011;46715;40.642;-7.920;2024-01-25T05:26:24;3.57;;;2.27;;
60873;SDS011;46715;40.642;-7.920;2024-01-25T05:28:25;3.30;;;2.20;;
60873;SDS011;46715;40.642;-7.920;2024-01-25T05:30:26;2.77;;;2.30;;
60873;SDS011;46715;40.642;-7.920;2024-01-25T05:32:28;4.22;;;2.53;;
60873;SDS011;46715;40.642;-7.920;2024-01-25T05:34:33;2.60;;;2.15;;
60873;SDS011;46715;40.642;-7.920;2024-01-25T05:36:34;2.57;;;2.23;;
60873;SDS011;46715;40.642;-7.920;2024-01-25T05:38:34;2.43;;;2.07;;
60873;SDS011;46715;40.642;-7.920;2024-01-25T05:40:35;2.47;;;1.97;;
60873;SDS011;46715;40.642;-7.920;2024-01-25T05:42:36;3.93;;;2.13;;
60873;SDS011;46715;40.642;-7.920;2024-01-25T05:44:37;5.60;;;2.00;;
60873;SDS011;46715;40.642;-7.920;2024-01-25T05:46:37;3.03;;;1.73;;
60873;SDS011;46715;40.642;-7.920;2024-01-25T05:48:38;3.00;;;1.57;;
60873;SDS011;46715;40.642;-7.920;2024-01-25T05:50:39;2.00;;;1.60;;
60873;SDS011;46715;40.642;-7.920;2024-01-25T05:52:40;2.93;;;1.40;;
60873;SDS011;46715;40.642;-7.920;2024-01-25T05:54:41;3.03;;;1.53;;
60873;SDS011;46715;40.642;-7.920;2024-01-25T05:56:42;2.10;;;1.40;;
60873;SDS011;46715;40.642;-7.920;2024-01-25T05:58:42;1.80;;;1.40;;
60873;SDS011;46715;40.642;-7.920;2024-01-25T06:00:43;2.60;;;1.77;;
60873;SDS011;46715;40.642;-7.920;2024-01-25T06:02:44;3.10;;;1.70;;
60873;SDS011;46715;40.642;-7.920;2024-01-25T06:04:45;2.53;;;1.67;;
60873;SDS011;46715;40.642;-7.920;2024-01-25T06:06:46;1.63;;;1.30;;
60873;SDS011;46715;40.642;-7.920;2024-01-25T06:08:47;1.90;;;1.23;;
60873;SDS011;46715;40.642;-7.920;2024-01-25T06:10:47;1.90;;;1.70;;
60873;SDS011;46715;40.642;-7.920;2024-01-25T06:12:48;1.60;;;1.00;;
60873;SDS011;46715;40.642;-7.920;2024-01-25T06:14:49;1.60;;;1.30;;
60873;SDS011;46715;40.642;-7.920;2024-01-25T06:16:52;2.53;;;1.40;;
60873;SDS011;46715;40.642;-7.920;2024-01-25T06:18:53;2.03;;;1.40;;
60873;SDS011;46715;40.642;-7.920;2024-01-25T06:20:53;1.90;;;1.40;;
60873;SDS011;46715;40.642;-7.920;2024-01-25T06:22:54;2.47;;;1.50;;
60873;SDS011;46715;40.642;-7.920;2024-01-25T06:24:55;1.93;;;1.40;;
60873;SDS011;46715;40.642;-7.920;2024-01-25T06:26:56;4.13;;;1.60;;
60873;SDS011;46715;40.642;-7.920;2024-01-25T06:28:57;3.33;;;1.60;;
60873;SDS011;46715;40.642;-7.920;2024-01-25T06:31:00;4.10;;;1.93;;
60873;SDS011;46715;40.642;-7.920;2024-01-25T06:33:01;2.60;;;1.63;;
60873;SDS011;46715;40.642;-7.920;2024-01-25T06:35:02;3.40;;;1.83;;
60873;SDS011;46715;40.642;-7.920;2024-01-25T06:37:04;2.88;;;1.90;;
60873;SDS011;46715;40.642;-7.920;2024-01-25T06:39:05;3.60;;;1.90;;
60873;SDS011;46715;40.642;-7.920;2024-01-25T06:41:07;20.63;;;3.47;;
60873;SDS011;46715;40.642;-7.920;2024-01-25T06:43:09;2.38;;;1.60;;
60873;SDS011;46715;40.642;-7.920;2024-01-25T06:45:09;3.83;;;1.63;;
60873;SDS011;46715;40.642;-7.920;2024-01-25T06:47:10;2.73;;;1.70;;
60873;SDS011;46715;40.642;-7.920;2024-01-25T06:49:11;2.10;;;1.67;;
60873;SDS011;46715;40.642;-7.920;2024-01-25T06:51:12;2.50;;;1.80;;
60873;SDS011;46715;40.642;-7.920;2024-01-25T06:53:14;2.78;;;1.67;;
60873;SDS011;46715;40.642;-7.920;2024-01-25T06:55:15;3.23;;;2.03;;
60873;SDS011;46715;40.642;-7.920;2024-01-25T06:57:15;2.87;;;1.90;;
60873;SDS011;46715;40.642;-7.920;2024-01-25T06:59:17;2.10;;;1.48;;
60873;SDS011;46715;40.642;-7.920;2024-01-25T07:01:23;5.10;;;2.63;;
60873;SDS011;46715;40.642;-7.920;2024-01-25T07:03:24;3.50;;;2.15;;
60873;SDS011;46715;40.642;-7.920;2024-01-25T07:05:25;4.17;;;2.20;;
60873;SDS011;46715;40.642;-7.920;2024-01-25T07:07:26;3.13;;;1.90;;
60873;SDS011;46715;40.642;-7.920;2024-01-25T07:09:27;2.57;;;1.70;;
60873;SDS011;46715;40.642;-7.920;2024-01-25T07:11:29;2.37;;;2.10;;
60873;SDS011;46715;40.642;-7.920;2024-01-25T07:13:29;2.72;;;1.95;;
60873;SDS011;46715;40.642;-7.920;2024-01-25T07:15:30;2.30;;;1.70;;
60873;SDS011;46715;40.642;-7.920;2024-01-25T07:17:31;4.30;;;1.80;;
60873;SDS011;46715;40.642;-7.920;2024-01-25T07:19:32;2.90;;;1.80;;
60873;SDS011;46715;40.642;-7.920;2024-01-25T07:21:32;3.17;;;1.60;;
60873;SDS011;46715;40.642;-7.920;2024-01-25T07:23:34;2.65;;;1.60;;
60873;SDS011;46715;40.642;-7.920;2024-01-25T07:25:34;1.80;;;1.40;;
60873;SDS011;46715;40.642;-7.920;2024-01-25T07:27:35;2.77;;;1.50;;
60873;SDS011;46715;40.642;-7.920;2024-01-25T07:29:36;2.97;;;2.13;;
60873;SDS011;46715;40.642;-7.920;2024-01-25T07:31:37;3.63;;;1.65;;
60873;SDS011;46715;40.642;-7.920;2024-01-25T07:33:38;4.03;;;1.50;;
60873;SDS011;46715;40.642;-7.920;2024-01-25T07:35:39;8.23;;;1.70;;
60873;SDS011;46715;40.642;-7.920;2024-01-25T07:37:45;1.73;;;1.55;;
60873;SDS011;46715;40.642;-7.920;2024-01-25T07:39:46;3.07;;;1.70;;
60873;SDS011;46715;40.642;-7.920;2024-01-25T07:41:47;2.20;;;1.63;;
60873;SDS011;46715;40.642;-7.920;2024-01-25T07:43:48;3.00;;;1.30;;
60873;SDS011;46715;40.642;-7.920;2024-01-25T07:45:49;3.40;;;1.67;;
60873;SDS011;46715;40.642;-7.920;2024-01-25T07:47:49;1.67;;;1.20;;
60873;SDS011;46715;40.642;-7.920;2024-01-25T07:49:50;2.10;;;1.40;;
60873;SDS011;46715;40.642;-7.920;2024-01-25T07:51:58;4.32;;;1.65;;
60873;SDS011;46715;40.642;-7.920;2024-01-25T07:53:58;1.73;;;1.57;;
60873;SDS011;46715;40.642;-7.920;2024-01-25T07:56:00;4.18;;;2.10;;
60873;SDS011;46715;40.642;-7.920;2024-01-25T07:58:01;2.63;;;1.90;;
60873;SDS011;46715;40.642;-7.920;2024-01-25T08:00:03;3.58;;;2.22;;
60873;SDS011;46715;40.642;-7.920;2024-01-25T08:02:05;6.22;;;2.47;;
60873;SDS011;46715;40.642;-7.920;2024-01-25T08:04:06;4.22;;;3.83;;
60873;SDS011;46715;40.642;-7.920;2024-01-25T08:06:07;4.63;;;3.67;;
60873;SDS011;46715;40.642;-7.920;2024-01-25T08:08:08;4.57;;;3.17;;
60873;SDS011;46715;40.642;-7.920;2024-01-25T08:10:10;4.90;;;3.60;;
60873;SDS011;46715;40.642;-7.920;2024-01-25T08:12:11;5.20;;;3.57;;
60873;SDS011;46715;40.642;-7.920;2024-01-25T08:14:12;4.23;;;2.50;;
60873;SDS011;46715;40.642;-7.920;2024-01-25T08:16:12;5.47;;;2.50;;
60873;SDS011;46715;40.642;-7.920;2024-01-25T08:18:22;2.35;;;1.92;;
60873;SDS011;46715;40.642;-7.920;2024-01-25T08:20:24;2.63;;;1.90;;
60873;SDS011;46715;40.642;-7.920;2024-01-25T08:24:26;2.95;;;2.10;;
60873;SDS011;46715;40.642;-7.920;2024-01-25T08:26:26;7.47;;;2.67;;
60873;SDS011;46715;40.642;-7.920;2024-01-25T08:28:27;8.90;;;2.67;;
60873;SDS011;46715;40.642;-7.920;2024-01-25T08:30:28;4.57;;;2.20;;
60873;SDS011;46715;40.642;-7.920;2024-01-25T08:32:29;4.60;;;2.80;;
60873;SDS011;46715;40.642;-7.920;2024-01-25T08:34:29;4.53;;;2.30;;
60873;SDS011;46715;40.642;-7.920;2024-01-25T08:36:30;4.63;;;2.30;;
60873;SDS011;46715;40.642;-7.920;2024-01-25T08:38:31;5.30;;;1.90;;
60873;SDS011;46715;40.642;-7.920;2024-01-25T08:40:32;7.80;;;2.27;;
60873;SDS011;46715;40.642;-7.920;2024-01-25T08:42:33;5.63;;;2.25;;
60873;SDS011;46715;40.642;-7.920;2024-01-25T08:44:34;3.58;;;2.08;;
60873;SDS011;46715;40.642;-7.920;2024-01-25T08:46:35;2.30;;;1.77;;
60873;SDS011;46715;40.642;-7.920;2024-01-25T08:48:36;2.83;;;1.90;;
60873;SDS011;46715;40.642;-7.920;2024-01-25T08:50:36;4.30;;;1.90;;
60873;SDS011;46715;40.642;-7.920;2024-01-25T08:52:40;4.20;;;2.28;;
60873;SDS011;46715;40.642;-7.920;2024-01-25T08:54:41;4.93;;;2.00;;
60873;SDS011;46715;40.642;-7.920;2024-01-25T08:56:42;4.93;;;2.50;;
60873;SDS011;46715;40.642;-7.920;2024-01-25T08:58:43;4.87;;;2.37;;
60873;SDS011;46715;40.642;-7.920;2024-01-25T09:00:44;3.58;;;2.15;;
60873;SDS011;46715;40.642;-7.920;2024-01-25T09:02:44;3.60;;;2.10;;
60873;SDS011;46715;40.642;-7.920;2024-01-25T09:04:46;4.97;;;2.10;;
60873;SDS011;46715;40.642;-7.920;2024-01-25T09:06:49;3.60;;;2.50;;
60873;SDS011;46715;40.642;-7.920;2024-01-25T09:08:50;3.30;;;2.00;;
60873;SDS011;46715;40.642;-7.920;2024-01-25T09:10:51;4.03;;;1.80;;
60873;SDS011;46715;40.642;-7.920;2024-01-25T09:12:52;5.75;;;2.22;;
60873;SDS011;46715;40.642;-7.920;2024-01-25T09:14:53;5.63;;;2.00;;
60873;SDS011;46715;40.642;-7.920;2024-01-25T09:16:54;3.25;;;2.25;;
60873;SDS011;46715;40.642;-7.920;2024-01-25T09:18:55;3.83;;;2.50;;
60873;SDS011;46715;40.642;-7.920;2024-01-25T09:20:56;7.93;;;2.90;;
60873;SDS011;46715;40.642;-7.920;2024-01-25T09:22:57;3.50;;;2.70;;
60873;SDS011;46715;40.642;-7.920;2024-01-25T09:24:58;5.70;;;2.72;;
60873;SDS011;46715;40.642;-7.920;2024-01-25T09:26:58;8.35;;;4.00;;
60873;SDS011;46715;40.642;-7.920;2024-01-25T09:28:59;6.32;;;3.85;;
60873;SDS011;46715;40.642;-7.920;2024-01-25T09:31:00;8.57;;;5.70;;
60873;SDS011;46715;40.642;-7.920;2024-01-25T09:33:01;8.00;;;5.85;;
60873;SDS011;46715;40.642;-7.920;2024-01-25T09:35:02;8.07;;;5.70;;
60873;SDS011;46715;40.642;-7.920;2024-01-25T09:37:03;8.10;;;4.82;;
60873;SDS011;46715;40.642;-7.920;2024-01-25T09:39:04;6.03;;;4.20;;
60873;SDS011;46715;40.642;-7.920;2024-01-25T09:41:05;6.93;;;5.23;;
60873;SDS011;46715;40.642;-7.920;2024-01-25T09:43:06;9.45;;;6.18;;
60873;SDS011;46715;40.642;-7.920;2024-01-25T09:45:07;7.05;;;4.95;;
60873;SDS011;46715;40.642;-7.920;2024-01-25T09:47:11;8.52;;;6.13;;
60873;SDS011;46715;40.642;-7.920;2024-01-25T09:49:12;10.18;;;6.38;;
60873;SDS011;46715;40.642;-7.920;2024-01-25T09:51:13;8.97;;;5.97;;
60873;SDS011;46715;40.642;-7.920;2024-01-25T09:53:17;9.27;;;4.93;;
60873;SDS011;46715;40.642;-7.920;2024-01-25T09:55:22;8.73;;;6.10;;
60873;SDS011;46715;40.642;-7.920;2024-01-25T09:57:26;10.77;;;6.15;;
60873;SDS011;46715;40.642;-7.920;2024-01-25T09:59:28;8.98;;;5.72;;
60873;SDS011;46715;40.642;-7.920;2024-01-25T10:01:29;8.50;;;5.17;;
60873;SDS011;46715;40.642;-7.920;2024-01-25T10:03:31;9.88;;;5.15;;
60873;SDS011;46715;40.642;-7.920;2024-01-25T10:05:31;7.13;;;4.50;;
60873;SDS011;46715;40.642;-7.920;2024-01-25T10:07:42;6.47;;;4.07;;
60873;SDS011;46715;40.642;-7.920;2024-01-25T10:09:44;5.35;;;4.28;;
60873;SDS011;46715;40.642;-7.920;2024-01-25T10:11:45;6.57;;;3.90;;
60873;SDS011;46715;40.642;-7.920;2024-01-25T10:13:47;6.33;;;3.50;;
60873;SDS011;46715;40.642;-7.920;2024-01-25T10:15:50;7.32;;;4.07;;
60873;SDS011;46715;40.642;-7.920;2024-01-25T10:17:51;7.50;;;4.15;;
60873;SDS011;46715;40.642;-7.920;2024-01-25T10:19:52;4.73;;;3.50;;
60873;SDS011;46715;40.642;-7.920;2024-01-25T10:21:53;6.55;;;3.90;;
60873;SDS011;46715;40.642;-7.920;2024-01-25T10:23:55;5.63;;;3.17;;
60873;SDS011;46715;40.642;-7.920;2024-01-25T10:26:00;4.82;;;3.22;;
60873;SDS011;46715;40.642;-7.920;2024-01-25T10:28:02;5.72;;;3.67;;
60873;SDS011;46715;40.642;-7.920;2024-01-25T10:30:05;8.50;;;3.72;;
60873;SDS011;46715;40.642;-7.920;2024-01-25T10:32:10;8.90;;;3.60;;
60873;SDS011;46715;40.642;-7.920;2024-01-25T10:34:13;6.20;;;3.67;;
60873;SDS011;46715;40.642;-7.920;2024-01-25T10:36:15;5.88;;;3.00;;
60873;SDS011;46715;40.642;-7.920;2024-01-25T10:38:17;5.95;;;3.97;;
60873;SDS011;46715;40.642;-7.920;2024-01-25T10:40:18;6.13;;;4.18;;
60873;SDS011;46715;40.642;-7.920;2024-01-25T10:42:20;9.35;;;5.00;;
60873;SDS011;46715;40.642;-7.920;2024-01-25T10:44:20;7.72;;;4.85;;
60873;SDS011;46715;40.642;-7.920;2024-01-25T10:46:21;8.87;;;4.70;;
60873;SDS011;46715;40.642;-7.920;2024-01-25T10:50:27;7.53;;;4.35;;
60873;SDS011;46715;40.642;-7.920;2024-01-25T10:52:28;10.53;;;4.60;;
60873;SDS011;46715;40.642;-7.920;2024-01-25T10:54:30;7.15;;;4.72;;
60873;SDS011;46715;40.642;-7.920;2024-01-25T10:56:31;13.18;;;5.75;;
60873;SDS011;46715;40.642;-7.920;2024-01-25T10:58:32;8.75;;;4.85;;
60873;SDS011;46715;40.642;-7.920;2024-01-25T11:00:35;8.25;;;4.30;;
60873;SDS011;46715;40.642;-7.920;2024-01-25T11:02:37;7.80;;;4.35;;
60873;SDS011;46715;40.642;-7.920;2024-01-25T11:04:42;9.77;;;5.05;;
60873;SDS011;46715;40.642;-7.920;2024-01-25T11:06:53;8.48;;;4.95;;
60873;SDS011;46715;40.642;-7.920;2024-01-25T11:09:03;8.00;;;5.20;;
60873;SDS011;46715;40.642;-7.920;2024-01-25T11:13:13;11.35;;;7.25;;
60873;SDS011;46715;40.642;-7.920;2024-01-25T11:15:20;10.93;;;6.93;;
60873;SDS011;46715;40.642;-7.920;2024-01-25T11:17:22;12.48;;;6.93;;
60873;SDS011;46715;40.642;-7.920;2024-01-25T11:19:24;12.07;;;6.82;;
60873;SDS011;46715;40.642;-7.920;2024-01-25T11:21:25;11.95;;;6.93;;
60873;SDS011;46715;40.642;-7.920;2024-01-25T11:23:49;11.32;;;6.72;;
60873;SDS011;46715;40.642;-7.920;2024-01-25T11:26:04;9.75;;;5.57;;
60873;SDS011;46715;40.642;-7.920;2024-01-25T11:28:09;7.93;;;5.53;;
60873;SDS011;46715;40.642;-7.920;2024-01-25T11:30:22;10.15;;;6.32;;
60873;SDS011;46715;40.642;-7.920;2024-01-25T11:32:23;19.60;;;10.98;;
60873;SDS011;46715;40.642;-7.920;2024-01-25T11:34:24;13.27;;;8.57;;
60873;SDS011;46715;40.642;-7.920;2024-01-25T11:36:46;16.33;;;7.82;;
60873;SDS011;46715;40.642;-7.920;2024-01-25T11:38:55;12.80;;;6.78;;
60873;SDS011;46715;40.642;-7.920;2024-01-25T11:40:57;8.93;;;6.25;;
60873;SDS011;46715;40.642;-7.920;2024-01-25T11:42:58;10.97;;;7.50;;
60873;SDS011;46715;40.642;-7.920;2024-01-25T11:44:59;10.70;;;7.85;;
60873;SDS011;46715;40.642;-7.920;2024-01-25T11:47:00;9.35;;;6.97;;
60873;SDS011;46715;40.642;-7.920;2024-01-25T11:49:01;9.63;;;6.63;;
60873;SDS011;46715;40.642;-7.920;2024-01-25T11:51:02;10.32;;;5.85;;
60873;SDS011;46715;40.642;-7.920;2024-01-25T11:53:03;10.75;;;6.30;;
60873;SDS011;46715;40.642;-7.920;2024-01-25T11:55:04;12.10;;;6.45;;
60873;SDS011;46715;40.642;-7.920;2024-01-25T11:57:09;8.80;;;5.40;;
60873;SDS011;46715;40.642;-7.920;2024-01-25T11:59:10;8.23;;;5.93;;
60873;SDS011;46715;40.642;-7.920;2024-01-25T12:01:12;10.77;;;6.03;;
60873;SDS011;46715;40.642;-7.920;2024-01-25T12:03:13;10.63;;;6.13;;
60873;SDS011;46715;40.642;-7.920;2024-01-25T12:05:16;11.15;;;6.68;;
60873;SDS011;46715;40.642;-7.920;2024-01-25T12:07:17;10.10;;;6.63;;
60873;SDS011;46715;40.642;-7.920;2024-01-25T12:09:18;8.40;;;6.33;;
60873;SDS011;46715;40.642;-7.920;2024-01-25T12:11:18;8.87;;;6.07;;
60873;SDS011;46715;40.642;-7.920;2024-01-25T12:13:22;7.95;;;5.22;;